Time;durP1;ratioP1;P1;durP2;ratioP2;P2;SDS_P1;SDS_P2;PMS_P1;PMS_P2;Temp;Humidity;BMP_temperature;BMP_pressure;BME280_temperature;BME280_humidity;BME280_pressure;Samples;Min_cycle;Max_cycle;Signal;HPM_P1;HPM_P2
2021/12/03 00:02:21;;;;;;;5.67;3.43;;;2.30;90.80;;;;;;4974544;28;20191;-73
2021/12/03 00:04:47;;;;;;;9.53;4.50;;;2.20;90.90;;;;;;5047464;28;20194;-72
2021/12/03 00:07:12;;;;;;;9.77;4.57;;;2.20;91.00;;;;;;5031772;28;20211;-75
2021/12/03 00:09:38;;;;;;;7.77;4.30;;;2.20;91.10;;;;;;4995413;28;20218;-75
2021/12/03 00:12:04;;;;;;;7.20;3.83;;;2.10;91.30;;;;;;4974239;28;20268;-74
2021/12/03 00:14:32;;;;;;;6.25;3.67;;;2.10;91.40;;;;;;4968883;28;20176;-73
2021/12/03 00:16:58;;;;;;;6.65;4.30;;;2.00;91.50;;;;;;4964501;28;20203;-74
2021/12/03 00:19:24;;;;;;;9.43;4.20;;;2.00;91.70;;;;;;4959842;28;20233;-74
2021/12/03 00:21:50;;;;;;;8.40;4.70;;;2.00;91.80;;;;;;4964066;28;20190;-75
2021/12/03 00:24:16;;;;;;;9.70;4.07;;;2.00;91.80;;;;;;4966964;28;20773;-74
2021/12/03 00:26:42;;;;;;;7.10;4.50;;;2.00;91.90;;;;;;4960960;28;20212;-74
2021/12/03 00:29:08;;;;;;;9.77;4.60;;;2.00;92.00;;;;;;4965578;28;20823;-73
2021/12/03 00:31:34;;;;;;;10.57;5.20;;;1.90;92.00;;;;;;4967353;28;20234;-75
2021/12/03 00:34:00;;;;;;;11.20;5.40;;;1.90;92.20;;;;;;4964846;28;20670;-75
2021/12/03 00:36:27;;;;;;;8.37;5.00;;;1.90;92.20;;;;;;4964579;28;20429;-74
2021/12/03 00:38:58;;;;;;;10.30;5.43;;;1.90;92.20;;;;;;4962173;28;20424;-75
2021/12/03 00:41:28;;;;;;;8.57;4.13;;;1.90;92.10;;;;;;4963747;28;20183;-74
2021/12/03 00:43:54;;;;;;;9.00;4.97;;;1.80;92.20;;;;;;4963084;28;20175;-73
2021/12/03 00:46:21;;;;;;;6.93;4.37;;;1.90;92.30;;;;;;4965669;28;20198;-74
2021/12/03 00:48:50;;;;;;;13.60;5.60;;;1.70;92.50;;;;;;4968005;28;20423;-74
2021/12/03 00:51:18;;;;;;;9.02;4.45;;;1.60;92.80;;;;;;4970081;28;20724;-74
2021/12/03 00:53:44;;;;;;;9.20;5.25;;;1.70;93.10;;;;;;4966348;28;20188;-74
2021/12/03 00:56:10;;;;;;;10.52;5.32;;;1.60;93.00;;;;;;4963047;28;20183;-74
2021/12/03 00:58:36;;;;;;;8.73;4.53;;;1.70;93.30;;;;;;4969098;28;20241;-74
2021/12/03 01:01:04;;;;;;;7.95;4.85;;;1.70;93.10;;;;;;4964364;28;20211;-76
2021/12/03 01:03:31;;;;;;;11.48;5.85;;;1.70;93.00;;;;;;4961472;28;20246;-74
2021/12/03 01:05:57;;;;;;;9.02;5.25;;;1.80;93.00;;;;;;4961805;28;20184;-75
2021/12/03 01:08:23;;;;;;;11.43;4.97;;;1.70;93.00;;;;;;4963738;28;20604;-74
2021/12/03 01:10:49;;;;;;;11.55;5.10;;;1.70;93.00;;;;;;4976726;28;20901;-75
2021/12/03 01:13:15;;;;;;;9.60;5.55;;;1.80;92.80;;;;;;4968543;28;20188;-75
2021/12/03 01:15:42;;;;;;;11.90;6.60;;;1.80;92.70;;;;;;4973061;28;20183;-75
2021/12/03 01:18:11;;;;;;;8.88;4.85;;;1.70;92.70;;;;;;4973864;28;20996;-75
2021/12/03 01:20:38;;;;;;;7.45;4.72;;;1.70;92.80;;;;;;5004204;28;20187;-74
2021/12/03 01:23:05;;;;;;;10.02;5.25;;;1.80;92.70;;;;;;4971382;28;20225;-73
2021/12/03 01:25:31;;;;;;;11.73;5.63;;;1.80;92.70;;;;;;4971151;28;20188;-74
2021/12/03 01:27:59;;;;;;;9.43;5.50;;;1.90;92.60;;;;;;4963690;28;20214;-72
2021/12/03 01:30:26;;;;;;;12.85;5.95;;;2.00;92.50;;;;;;4963430;28;20427;-74
2021/12/03 01:32:52;;;;;;;12.75;6.00;;;2.00;92.40;;;;;;4957579;28;20211;-75
2021/12/03 01:35:19;;;;;;;10.68;6.00;;;1.90;92.20;;;;;;4966314;28;20184;-73
2021/12/03 01:37:46;;;;;;;10.43;5.43;;;1.90;92.30;;;;;;4962619;28;20212;-72
2021/12/03 01:40:18;;;;;;;11.90;5.97;;;1.90;92.40;;;;;;4960111;28;20193;-75
2021/12/03 01:42:45;;;;;;;13.93;6.13;;;1.90;92.40;;;;;;4968424;28;20187;-74
2021/12/03 01:45:14;;;;;;;10.52;5.65;;;2.00;92.30;;;;;;4964926;28;20183;-73
2021/12/03 01:51:56;;;;;;;13.52;6.38;;;2.00;92.30;;;;;;4960604;28;20317;-74
2021/12/03 01:54:22;;;;;;;11.40;5.90;;;1.90;92.20;;;;;;4954891;28;20184;-73
2021/12/03 01:56:47;;;;;;;11.50;5.43;;;1.90;92.30;;;;;;4952746;28;20262;-73
2021/12/03 01:59:13;;;;;;;10.93;5.77;;;1.80;92.20;;;;;;4960930;28;20416;-75
2021/12/03 02:01:39;;;;;;;8.97;5.67;;;1.80;92.50;;;;;;4964309;28;20191;-75
2021/12/03 02:04:05;;;;;;;9.55;5.85;;;1.80;92.60;;;;;;4968061;28;20187;-73
2021/12/03 02:06:32;;;;;;;14.70;6.43;;;1.70;92.70;;;;;;4970967;28;20217;-75
2021/12/03 02:08:58;;;;;;;12.23;6.13;;;1.70;92.70;;;;;;4966501;28;20488;-73
2021/12/03 02:11:25;;;;;;;16.63;6.50;;;1.50;92.90;;;;;;4964532;28;20249;-74
2021/12/03 02:13:51;;;;;;;12.38;5.90;;;1.50;93.00;;;;;;4969075;28;20258;-74
2021/12/03 02:16:18;;;;;;;11.68;6.30;;;1.50;93.10;;;;;;4965816;28;20191;-75
2021/12/03 02:18:44;;;;;;;14.80;6.40;;;1.50;93.20;;;;;;4967637;28;20244;-75
2021/12/03 02:21:10;;;;;;;11.80;7.03;;;1.50;93.10;;;;;;4968005;28;20194;-73
2021/12/03 02:23:37;;;;;;;11.07;5.65;;;1.50;93.10;;;;;;4968209;28;20582;-73
2021/12/03 02:26:03;;;;;;;14.15;5.85;;;1.50;93.20;;;;;;4960226;28;20209;-75
2021/12/03 02:28:32;;;;;;;13.90;7.03;;;1.50;93.00;;;;;;4961413;28;20211;-75
2021/12/03 02:30:58;;;;;;;13.68;6.90;;;1.50;93.10;;;;;;4960489;28;20296;-75
2021/12/03 02:33:24;;;;;;;14.40;6.30;;;1.30;93.20;;;;;;4965166;28;20188;-73
2021/12/03 02:35:50;;;;;;;11.53;5.80;;;1.40;93.40;;;;;;4996083;28;20191;-73
2021/12/03 02:38:21;;;;;;;12.00;6.20;;;1.40;93.30;;;;;;4968223;28;20438;-75
2021/12/03 02:40:47;;;;;;;13.40;6.82;;;1.40;93.00;;;;;;4965799;28;20192;-74
2021/12/03 02:43:14;;;;;;;14.90;6.45;;;1.30;93.00;;;;;;4963736;28;20191;-73
2021/12/03 02:45:40;;;;;;;11.60;6.15;;;1.30;93.10;;;;;;4968477;28;20187;-75
2021/12/03 02:48:06;;;;;;;11.55;6.68;;;1.30;93.20;;;;;;4961136;28;20681;-74
2021/12/03 02:50:33;;;;;;;9.40;5.93;;;1.40;93.20;;;;;;4962040;28;20214;-74
2021/12/03 02:52:59;;;;;;;14.38;6.75;;;1.40;93.10;;;;;;4966720;28;20431;-75
2021/12/03 02:55:25;;;;;;;11.38;5.97;;;1.40;93.00;;;;;;4957293;28;20204;-75
2021/12/03 02:57:51;;;;;;;17.27;5.95;;;1.40;93.00;;;;;;4964529;28;20199;-74
2021/12/03 03:00:20;;;;;;;11.68;7.15;;;1.30;92.80;;;;;;5001574;28;20666;-75
2021/12/03 03:02:46;;;;;;;19.88;6.13;;;1.30;92.80;;;;;;4962718;28;20189;-75
2021/12/03 03:05:14;;;;;;;14.17;6.10;;;1.30;93.00;;;;;;4956263;28;20264;-75
2021/12/03 03:07:40;;;;;;;23.05;6.90;;;1.20;92.80;;;;;;4965763;28;20530;-74
2021/12/03 03:10:10;;;;;;;13.35;6.90;;;1.20;92.80;;;;;;4964635;28;20661;-74
2021/12/03 03:12:37;;;;;;;15.35;6.60;;;1.20;93.20;;;;;;4966629;28;20278;-73
2021/12/03 03:15:03;;;;;;;13.23;7.20;;;1.20;93.20;;;;;;4964552;28;20270;-73
2021/12/03 03:17:30;;;;;;;11.20;6.90;;;1.20;93.30;;;;;;4969261;28;20206;-74
2021/12/03 03:19:58;;;;;;;14.57;7.38;;;1.20;93.40;;;;;;4968052;28;20211;-74
2021/12/03 03:22:23;;;;;;;12.82;6.72;;;1.30;93.50;;;;;;4971654;28;20198;-75
2021/12/03 03:24:54;;;;;;;12.93;6.30;;;1.20;93.50;;;;;;4968997;28;20179;-72
2021/12/03 03:27:21;;;;;;;13.88;6.68;;;1.30;93.60;;;;;;4971421;28;20504;-74
2021/12/03 03:29:48;;;;;;;11.85;6.78;;;1.30;93.60;;;;;;4965107;28;20196;-73
2021/12/03 03:32:15;;;;;;;13.20;6.80;;;1.30;93.60;;;;;;4968393;28;20207;-74
2021/12/03 03:34:41;;;;;;;14.57;6.45;;;1.30;93.60;;;;;;4968778;28;20191;-73
2021/12/03 03:37:07;;;;;;;11.20;6.00;;;1.30;93.60;;;;;;4966329;28;20291;-73
2021/12/03 03:39:33;;;;;;;12.20;6.45;;;1.30;93.50;;;;;;4960945;28;20860;-73
2021/12/03 03:41:59;;;;;;;11.37;5.90;;;1.30;93.50;;;;;;4966611;28;20219;-74
2021/12/03 03:44:25;;;;;;;11.05;6.88;;;1.40;93.60;;;;;;4969025;28;20521;-73
2021/12/03 03:46:52;;;;;;;10.60;6.63;;;1.40;93.50;;;;;;4978719;28;20238;-74
2021/12/03 03:49:20;;;;;;;14.68;7.03;;;1.40;93.40;;;;;;5016577;28;20216;-75
2021/12/03 03:51:47;;;;;;;18.05;7.65;;;1.30;93.50;;;;;;5042241;28;20213;-75
2021/12/03 03:54:13;;;;;;;16.38;7.13;;;1.30;93.70;;;;;;5008453;28;20191;-75
2021/12/03 03:56:39;;;;;;;16.03;6.70;;;1.40;93.70;;;;;;5011465;28;20265;-74
2021/12/03 03:59:04;;;;;;;8.93;5.40;;;1.30;93.60;;;;;;4973738;28;20443;-74
2021/12/03 04:01:30;;;;;;;11.70;6.90;;;1.30;93.60;;;;;;4983549;28;20435;-75
2021/12/03 04:03:56;;;;;;;18.20;6.97;;;1.30;93.60;;;;;;4966134;28;20187;-75
2021/12/03 04:06:22;;;;;;;11.40;6.65;;;1.40;93.40;;;;;;4964853;28;20314;-75
2021/12/03 04:08:48;;;;;;;15.82;7.18;;;1.40;93.20;;;;;;4960958;28;20210;-76
2021/12/03 04:11:18;;;;;;;15.68;6.88;;;1.40;93.10;;;;;;4987490;28;20210;-75
2021/12/03 04:13:44;;;;;;;9.45;6.22;;;1.40;93.10;;;;;;5024985;28;20187;-75
2021/12/03 04:16:10;;;;;;;12.20;6.50;;;1.50;93.10;;;;;;4991906;28;20193;-75
2021/12/03 04:18:35;;;;;;;13.70;7.43;;;1.50;92.90;;;;;;5061783;28;20505;-75
2021/12/03 04:21:02;;;;;;;15.23;7.53;;;1.40;93.00;;;;;;4992475;28;20286;-74
2021/12/03 04:23:28;;;;;;;14.50;6.72;;;1.40;93.00;;;;;;4971828;28;20179;-73
2021/12/03 04:25:54;;;;;;;14.80;7.67;;;1.40;93.00;;;;;;4968205;28;20207;-72
2021/12/03 04:28:21;;;;;;;11.70;7.10;;;1.40;93.10;;;;;;4964148;28;20459;-74
2021/12/03 04:30:48;;;;;;;16.10;7.72;;;1.40;93.10;;;;;;4958543;28;20749;-72
2021/12/03 04:33:14;;;;;;;16.80;7.75;;;1.40;93.10;;;;;;4995763;28;20227;-72
2021/12/03 04:35:40;;;;;;;14.55;7.00;;;1.50;93.20;;;;;;4964764;28;20219;-73
2021/12/03 04:38:07;;;;;;;14.02;7.22;;;1.50;93.10;;;;;;4972275;28;20854;-73
2021/12/03 04:40:35;;;;;;;13.50;7.22;;;1.50;92.90;;;;;;4969280;28;20547;-73
2021/12/03 04:43:01;;;;;;;14.98;7.47;;;1.50;92.90;;;;;;4972061;28;20236;-72
2021/12/03 04:45:29;;;;;;;19.65;8.45;;;1.50;92.90;;;;;;4965732;28;20266;-73
2021/12/03 04:47:55;;;;;;;14.70;8.15;;;1.50;92.90;;;;;;4967867;28;20234;-73
2021/12/03 04:50:25;;;;;;;14.65;7.68;;;1.50;92.90;;;;;;4971490;28;20559;-73
2021/12/03 04:52:51;;;;;;;12.38;6.90;;;1.50;92.80;;;;;;4972561;28;20262;-75
2021/12/03 04:55:17;;;;;;;14.85;7.68;;;1.50;92.60;;;;;;4987813;28;20210;-72
2021/12/03 04:57:43;;;;;;;15.60;7.32;;;1.50;92.30;;;;;;4963557;28;20215;-74
2021/12/03 05:00:17;;;;;;;14.13;7.40;;;1.60;92.10;;;;;;4972873;28;20191;-74
2021/12/03 05:02:44;;;;;;;13.20;7.13;;;1.60;92.10;;;;;;4982448;28;20194;-72
2021/12/03 05:05:09;;;;;;;16.77;8.05;;;1.50;92.10;;;;;;5011571;28;20194;-74
2021/12/03 05:10:05;;;;;;;17.92;6.68;;;1.50;92.00;;;;;;4979285;28;20811;-71
2021/12/03 05:12:31;;;;;;;16.75;8.75;;;1.50;91.80;;;;;;4975308;28;20210;-75
2021/12/03 05:14:57;;;;;;;14.27;7.77;;;1.60;92.00;;;;;;4972825;28;20479;-73
2021/12/03 05:17:23;;;;;;;17.37;7.93;;;1.60;92.10;;;;;;5011196;28;20434;-75
2021/12/03 05:19:49;;;;;;;16.70;7.97;;;1.70;92.30;;;;;;5072548;28;20180;-73
2021/12/03 05:22:15;;;;;;;18.05;8.70;;;1.60;92.50;;;;;;5060289;28;20180;-74
2021/12/03 05:24:45;;;;;;;16.60;7.70;;;1.60;92.30;;;;;;5028628;28;20657;-74
2021/12/03 05:27:13;;;;;;;14.70;7.47;;;1.70;92.30;;;;;;5002240;28;20809;-74
2021/12/03 05:29:41;;;;;;;20.50;8.07;;;1.60;92.30;;;;;;5031051;28;20201;-77
2021/12/03 05:32:07;;;;;;;17.33;8.30;;;1.60;92.30;;;;;;5039873;28;20321;-75
2021/12/03 05:34:33;;;;;;;15.83;8.00;;;1.70;92.30;;;;;;5073306;28;20176;-76
2021/12/03 05:36:59;;;;;;;17.20;8.48;;;1.70;92.20;;;;;;5004965;28;20439;-75
2021/12/03 05:39:25;;;;;;;17.50;7.33;;;1.70;92.20;;;;;;5013270;28;20283;-77
2021/12/03 05:41:50;;;;;;;14.90;8.03;;;1.80;92.10;;;;;;5017368;28;20434;-75
2021/12/03 05:44:16;;;;;;;14.20;7.47;;;1.90;92.30;;;;;;4983970;28;20196;-76
2021/12/03 05:46:42;;;;;;;14.75;8.27;;;1.90;91.90;;;;;;4991316;28;20582;-76
2021/12/03 05:49:08;;;;;;;15.63;8.20;;;1.90;91.60;;;;;;4965787;28;20198;-76
2021/12/03 05:51:34;;;;;;;14.73;7.80;;;1.90;91.60;;;;;;5011710;28;20215;-75
2021/12/03 05:54:00;;;;;;;12.60;7.40;;;2.10;91.50;;;;;;5005018;28;20175;-74
2021/12/03 05:56:26;;;;;;;12.37;7.97;;;2.20;91.20;;;;;;5012232;28;20182;-75
2021/12/03 05:58:51;;;;;;;13.83;7.60;;;2.20;90.80;;;;;;5072781;28;20176;-75
2021/12/03 06:01:18;;;;;;;16.47;8.27;;;2.10;90.40;;;;;;5067420;28;20433;-77
2021/12/03 06:03:46;;;;;;;16.27;8.75;;;2.10;90.10;;;;;;4976088;28;20196;-76
2021/12/03 06:06:13;;;;;;;15.82;7.53;;;1.90;89.50;;;;;;4962423;28;20380;-72
2021/12/03 06:08:38;;;;;;;17.75;7.80;;;1.90;89.60;;;;;;4970565;28;20183;-73
2021/12/03 06:11:04;;;;;;;19.47;8.10;;;1.80;90.50;;;;;;4965585;28;20799;-73
2021/12/03 06:13:30;;;;;;;17.83;9.20;;;1.80;90.90;;;;;;4971214;28;20246;-73
2021/12/03 06:15:56;;;;;;;18.07;8.80;;;1.70;91.10;;;;;;4965619;28;20258;-73
2021/12/03 06:18:21;;;;;;;18.40;9.00;;;1.70;91.00;;;;;;4960430;28;20239;-73
2021/12/03 06:20:47;;;;;;;17.60;8.97;;;1.50;91.10;;;;;;4963921;28;20220;-74
2021/12/03 06:23:13;;;;;;;14.67;8.33;;;1.60;91.30;;;;;;4969582;28;20214;-73
2021/12/03 06:25:39;;;;;;;14.90;7.77;;;1.60;91.40;;;;;;4968786;28;20253;-72
2021/12/03 06:28:05;;;;;;;12.48;7.10;;;1.60;91.00;;;;;;4994068;28;20540;-74
2021/12/03 06:30:31;;;;;;;11.82;7.45;;;1.50;88.60;;;;;;4998249;28;20191;-74
2021/12/03 06:32:57;;;;;;;15.88;7.60;;;1.50;87.40;;;;;;5031320;28;20180;-73
2021/12/03 06:35:23;;;;;;;14.20;7.50;;;1.50;87.30;;;;;;4963377;28;20183;-73
2021/12/03 06:37:50;;;;;;;13.90;7.35;;;1.40;87.60;;;;;;4963707;28;20231;-72
2021/12/03 06:40:20;;;;;;;11.63;6.90;;;1.40;87.80;;;;;;4961181;28;20306;-73
2021/12/03 06:42:46;;;;;;;12.02;6.80;;;1.40;88.10;;;;;;4968393;28;20340;-74
2021/12/03 06:45:13;;;;;;;16.02;7.35;;;1.40;87.80;;;;;;4970378;28;20188;-74
2021/12/03 06:47:39;;;;;;;14.88;7.78;;;1.50;87.60;;;;;;4960886;28;20302;-75
2021/12/03 06:50:08;;;;;;;13.88;7.90;;;1.50;87.40;;;;;;4984130;28;20198;-75
2021/12/03 06:52:37;;;;;;;16.38;7.80;;;1.40;87.80;;;;;;4971596;28;20916;-73
2021/12/03 06:55:04;;;;;;;16.33;8.93;;;1.40;88.60;;;;;;4960700;28;20180;-74
2021/12/03 06:57:30;;;;;;;17.92;9.10;;;1.40;89.50;;;;;;4968979;28;20206;-76
2021/12/03 06:59:56;;;;;;;17.57;10.20;;;1.40;90.00;;;;;;4970900;28;20565;-75
2021/12/03 07:02:22;;;;;;;12.73;8.00;;;1.40;90.20;;;;;;5006679;28;20424;-75
2021/12/03 07:04:48;;;;;;;15.85;8.73;;;1.40;90.20;;;;;;4977264;28;20194;-75
2021/12/03 07:07:14;;;;;;;14.27;7.80;;;1.40;90.20;;;;;;4969908;28;20211;-76
2021/12/03 07:09:41;;;;;;;12.90;6.87;;;1.30;89.70;;;;;;4974571;28;20751;-75
2021/12/03 07:12:08;;;;;;;11.30;6.63;;;1.20;88.70;;;;;;4966392;28;20467;-75
2021/12/03 07:14:34;;;;;;;14.63;7.05;;;1.30;88.30;;;;;;4971211;28;20179;-74
2021/12/03 07:17:05;;;;;;;10.93;6.73;;;1.20;87.70;;;;;;4964239;28;20207;-75
2021/12/03 07:19:30;;;;;;;12.60;6.43;;;1.20;87.60;;;;;;4964669;28;20434;-76
2021/12/03 07:21:56;;;;;;;14.43;7.00;;;1.20;87.30;;;;;;4970555;28;20183;-75
2021/12/03 07:24:22;;;;;;;13.60;6.27;;;1.20;86.90;;;;;;4963006;28;20654;-76
2021/12/03 07:26:47;;;;;;;14.90;6.30;;;1.00;86.30;;;;;;4969201;28;20287;-74
2021/12/03 07:29:13;;;;;;;12.20;5.47;;;1.00;86.60;;;;;;4968678;28;20203;-75
2021/12/03 07:31:39;;;;;;;10.83;5.80;;;1.00;86.60;;;;;;4968557;28;20217;-75
2021/12/03 07:34:05;;;;;;;12.83;7.40;;;0.90;87.10;;;;;;4970982;28;20195;-74
2021/12/03 07:36:31;;;;;;;13.75;6.75;;;0.90;87.40;;;;;;4967323;28;20470;-75
2021/12/03 07:38:57;;;;;;;14.50;7.53;;;1.00;87.80;;;;;;4964065;28;20291;-76
2021/12/03 07:41:22;;;;;;;14.70;7.07;;;1.10;88.00;;;;;;4969646;28;20240;-74
2021/12/03 07:43:48;;;;;;;16.17;7.70;;;1.10;88.30;;;;;;4971043;28;20203;-76
2021/12/03 07:46:15;;;;;;;16.80;7.10;;;1.10;88.60;;;;;;5007702;28;20191;-74
2021/12/03 07:48:46;;;;;;;13.25;7.28;;;1.10;88.60;;;;;;4968591;28;20928;-75
2021/12/03 07:51:14;;;;;;;13.50;7.20;;;1.20;88.40;;;;;;4965266;28;20211;-75
2021/12/03 07:53:39;;;;;;;15.43;7.95;;;1.20;88.40;;;;;;4961436;28;20588;-74
2021/12/03 07:56:05;;;;;;;12.70;7.73;;;1.10;88.60;;;;;;4957383;28;20184;-74
2021/12/03 07:58:31;;;;;;;12.77;7.70;;;1.20;89.00;;;;;;4961283;28;20203;-75
2021/12/03 08:00:58;;;;;;;12.47;7.30;;;1.30;89.20;;;;;;4971226;28;20925;-75
2021/12/03 08:03:23;;;;;;;12.00;6.60;;;1.30;89.30;;;;;;4966421;28;20834;-76
2021/12/03 08:05:49;;;;;;;15.13;7.43;;;1.40;89.50;;;;;;4970816;28;20183;-75
2021/12/03 08:08:22;;;;;;;16.43;8.50;;;1.50;89.50;;;;;;4971794;28;20238;-74
2021/12/03 08:10:49;;;;;;;15.35;8.27;;;1.40;89.30;;;;;;4970230;28;20485;-75
2021/12/03 08:13:15;;;;;;;21.85;8.10;;;1.50;88.70;;;;;;4963893;28;20262;-74
2021/12/03 08:15:41;;;;;;;12.60;7.55;;;1.50;89.20;;;;;;4969364;28;20191;-75
2021/12/03 08:18:06;;;;;;;14.10;7.83;;;1.60;89.30;;;;;;4961563;28;20204;-75
2021/12/03 08:20:33;;;;;;;19.63;8.37;;;1.60;89.30;;;;;;4966197;28;20202;-75
2021/12/03 08:23:00;;;;;;;17.30;8.30;;;1.60;89.30;;;;;;4962146;28;20183;-73
2021/12/03 08:25:26;;;;;;;20.48;9.40;;;1.50;89.20;;;;;;4964796;28;20271;-75
2021/12/03 08:27:53;;;;;;;15.57;7.78;;;1.50;89.50;;;;;;4960966;28;20250;-75
2021/12/03 08:30:19;;;;;;;22.25;7.75;;;1.50;89.70;;;;;;4967981;28;20533;-73
2021/12/03 08:32:45;;;;;;;14.90;7.47;;;1.50;89.50;;;;;;4965457;28;20223;-74
2021/12/03 08:35:11;;;;;;;18.60;8.50;;;1.50;89.20;;;;;;4969166;28;20427;-76
2021/12/03 08:37:43;;;;;;;14.83;7.40;;;1.60;88.30;;;;;;4962981;28;20452;-73
2021/12/03 08:40:11;;;;;;;14.40;7.75;;;1.60;87.60;;;;;;4961504;28;20423;-75
2021/12/03 08:42:36;;;;;;;14.75;7.38;;;1.70;86.30;;;;;;4967307;28;20184;-76
2021/12/03 08:45:04;;;;;;;13.70;7.07;;;1.60;86.00;;;;;;4993230;28;20187;-76
2021/12/03 08:47:30;;;;;;;15.73;6.90;;;1.60;85.60;;;;;;4965379;28;20572;-75
2021/12/03 08:49:57;;;;;;;12.45;6.90;;;1.70;85.60;;;;;;4979458;28;20172;-76
2021/12/03 08:54:54;;;;;;;10.68;6.35;;;1.70;85.30;;;;;;4966618;28;20194;-74
2021/12/03 08:57:30;;;;;;;19.60;7.20;;;1.70;84.30;;;;;;4968288;28;20266;-75
2021/12/03 09:00:04;;;;;;;9.70;5.78;;;1.70;84.40;;;;;;4961146;28;20225;-75
2021/12/03 09:02:29;;;;;;;12.93;6.72;;;1.60;83.70;;;;;;4970492;28;20280;-76
2021/12/03 09:04:55;;;;;;;11.33;5.27;;;1.50;83.80;;;;;;4971329;28;20187;-74
2021/12/03 09:07:21;;;;;;;10.50;5.53;;;1.60;83.70;;;;;;4971419;28;20231;-75
2021/12/03 09:09:47;;;;;;;8.57;5.60;;;1.70;82.80;;;;;;4967390;28;20217;-74
2021/12/03 09:12:13;;;;;;;9.10;5.70;;;1.70;82.70;;;;;;4978792;28;20218;-77
2021/12/03 09:14:45;;;;;;;7.95;5.45;;;1.80;82.70;;;;;;4975671;28;20599;-74
2021/12/03 09:22:49;;;;;;;8.43;4.15;;;1.70;81.50;;;;;;4959487;28;20194;-75
2021/12/03 09:25:21;;;;;;;9.90;4.30;;;1.70;80.60;;;;;;4962940;28;20183;-74
2021/12/03 09:27:47;;;;;;;5.40;3.33;;;1.80;81.10;;;;;;4964743;28;20208;-75
2021/12/03 09:30:15;;;;;;;6.30;3.10;;;1.80;80.20;;;;;;4961747;28;20195;-76
2021/12/03 09:32:49;;;;;;;8.02;3.92;;;1.80;79.70;;;;;;4963437;28;20273;-76
2021/12/03 09:35:15;;;;;;;9.68;3.15;;;1.80;79.30;;;;;;4969831;28;20193;-74
2021/12/03 09:37:41;;;;;;;6.30;3.87;;;1.90;79.00;;;;;;4962572;28;20204;-74
2021/12/03 09:40:09;;;;;;;6.37;3.67;;;1.80;78.40;;;;;;4966653;28;20487;-74
2021/12/03 09:42:37;;;;;;;6.00;3.50;;;1.90;78.40;;;;;;4974257;28;20194;-76
2021/12/03 09:45:05;;;;;;;11.40;4.10;;;1.90;78.30;;;;;;4982670;28;20192;-74
2021/12/03 09:47:31;;;;;;;6.90;3.30;;;1.90;78.30;;;;;;4962822;28;20872;-75
2021/12/03 09:49:59;;;;;;;5.40;3.78;;;1.90;77.70;;;;;;4964756;28;20240;-75
2021/12/03 10:20:11;;;;;;;6.65;4.03;;;2.50;77.60;;;;;;5064211;28;20192;-75
2021/12/03 10:30:42;;;;;;;7.72;2.90;;;3.00;75.10;;;;;;5060213;28;20696;-76
2021/12/03 10:41:33;;;;;;;7.23;3.97;;;3.30;74.80;;;;;;4961104;28;20427;-76
2021/12/03 10:51:57;;;;;;;7.65;3.70;;;3.90;73.30;;;;;;4971203;28;20478;-76
2021/12/03 11:42:04;;;;;;;6.53;3.70;;;3.40;75.80;;;;;;4970027;28;20294;-77
2021/12/03 12:01:54;;;;;;;10.25;3.67;;;3.20;75.70;;;;;;4962309;28;20207;-75
2021/12/03 12:33:05;;;;;;;7.65;4.10;;;3.30;76.40;;;;;;5064277;28;20469;-74
2021/12/03 13:28:08;;;;;;;6.80;3.53;;;4.20;72.60;;;;;;4958503;28;20446;-75
2021/12/03 14:53:35;;;;;;;5.83;3.07;;;3.80;75.10;;;;;;4966340;28;20195;-74
2021/12/03 14:56:08;;;;;;;6.10;2.65;;;3.80;75.40;;;;;;4959578;28;20450;-75
2021/12/03 14:58:55;;;;;;;8.60;3.80;;;3.80;75.50;;;;;;4959379;28;20243;-75
2021/12/03 15:04:04;;;;;;;4.67;3.53;;;3.70;76.20;;;;;;4966833;28;20474;-75
2021/12/03 15:06:36;;;;;;;5.35;3.75;;;3.60;76.40;;;;;;4970050;28;20195;-75
2021/12/03 15:12:12;;;;;;;5.80;3.50;;;3.70;77.00;;;;;;4967279;28;20500;-76
2021/12/03 15:41:18;;;;;;;9.27;4.83;;;3.20;78.10;;;;;;4965256;28;20195;-75
2021/12/03 16:04:44;;;;;;;7.25;3.60;;;3.10;79.00;;;;;;4962969;28;20187;-74
2021/12/03 16:51:33;;;;;;;7.13;3.97;;;3.10;79.00;;;;;;4965846;28;20221;-73
2021/12/03 16:54:06;;;;;;;7.15;3.85;;;3.00;78.90;;;;;;4976616;28;20441;-75
2021/12/03 16:56:33;;;;;;;6.18;3.53;;;3.10;79.00;;;;;;4975625;28;20254;-75
2021/12/03 16:58:59;;;;;;;8.07;4.07;;;3.10;78.70;;;;;;4967870;28;20179;-75
2021/12/03 17:04:20;;;;;;;6.38;3.50;;;3.10;78.60;;;;;;4978490;28;20191;-74
2021/12/03 17:20:16;;;;;;;10.75;4.78;;;3.10;77.80;;;;;;4963265;28;20756;-75
2021/12/03 17:57:53;;;;;;;9.90;5.07;;;3.10;75.10;;;;;;4966699;28;20207;-76
2021/12/03 18:00:28;;;;;;;8.52;4.18;;;3.10;74.80;;;;;;4964829;28;20210;-76
2021/12/03 18:03:02;;;;;;;9.73;4.75;;;3.10;74.80;;;;;;4969042;28;20187;-76
2021/12/03 18:08:09;;;;;;;4.88;3.60;;;3.00;74.50;;;;;;4960100;28;20207;-76
2021/12/03 18:13:36;;;;;;;6.85;3.75;;;3.10;74.30;;;;;;4962350;28;20237;-74
2021/12/03 18:57:14;;;;;;;7.40;4.30;;;3.10;71.40;;;;;;4965115;28;20668;-76
2021/12/03 18:59:08;;;;;;;3.40;2.88;;;3.10;71.40;;;;;;4960305;28;20256;-73
2021/12/03 19:01:35;;;;;;;3.75;3.25;;;3.10;70.80;;;;;;4959398;28;20191;-76
2021/12/03 19:04:14;;;;;;;5.78;3.75;;;3.20;71.30;;;;;;4966413;28;20186;-75
2021/12/03 19:09:39;;;;;;;7.75;4.03;;;3.30;70.80;;;;;;4942004;28;20255;-75
2021/12/03 19:12:10;;;;;;;10.90;5.60;;;3.20;70.50;;;;;;4945129;28;20273;-75
2021/12/03 19:14:40;;;;;;;6.13;4.25;;;3.20;70.50;;;;;;4939021;28;20269;-74
2021/12/03 19:17:08;;;;;;;10.93;3.45;;;3.20;70.70;;;;;;4943791;28;20212;-74
2021/12/03 19:19:40;;;;;;;4.88;3.40;;;3.30;70.70;;;;;;4948888;28;20582;-76
2021/12/03 19:22:06;;;;;;;7.72;3.78;;;3.30;70.50;;;;;;4947808;28;20223;-75
2021/12/03 19:24:32;;;;;;;7.30;5.20;;;3.30;70.40;;;;;;4939624;28;20269;-74
2021/12/03 19:26:57;;;;;;;8.73;5.67;;;3.30;70.20;;;;;;4949981;28;20457;-76
2021/12/03 19:29:23;;;;;;;8.00;4.57;;;3.30;69.80;;;;;;4941402;28;20857;-75
2021/12/03 19:31:51;;;;;;;9.18;4.95;;;3.30;70.20;;;;;;4941521;28;20218;-74
2021/12/03 19:34:20;;;;;;;11.70;3.85;;;3.30;69.90;;;;;;4939753;28;20192;-75
2021/12/03 19:36:46;;;;;;;6.30;4.40;;;3.30;70.20;;;;;;4939117;28;20654;-75
2021/12/03 19:39:15;;;;;;;9.00;4.40;;;3.30;70.50;;;;;;4947027;28;20740;-76
2021/12/03 19:44:12;;;;;;;7.47;4.70;;;3.30;70.20;;;;;;4943470;28;20208;-75
2021/12/03 19:46:43;;;;;;;7.10;4.03;;;3.30;70.40;;;;;;4962080;28;20238;-75
2021/12/03 19:51:42;;;;;;;8.33;4.23;;;3.30;70.70;;;;;;4970883;28;20293;-76
2021/12/03 19:54:08;;;;;;;19.27;5.60;;;3.40;70.50;;;;;;4962235;28;21017;-75
2021/12/03 19:56:34;;;;;;;8.97;4.40;;;3.40;70.70;;;;;;4963591;28;20415;-76
2021/12/03 19:59:02;;;;;;;8.52;4.55;;;3.40;70.50;;;;;;4959152;28;20236;-76
2021/12/03 20:01:29;;;;;;;5.88;4.15;;;3.40;70.50;;;;;;4968135;28;20191;-75
2021/12/03 20:03:55;;;;;;;9.43;4.85;;;3.40;70.70;;;;;;4962233;28;20321;-75
2021/12/03 20:06:22;;;;;;;11.17;4.70;;;3.40;70.80;;;;;;4960252;28;20279;-74
2021/12/03 20:08:54;;;;;;;8.05;4.43;;;3.40;70.70;;;;;;4960906;28;20435;-74
2021/12/03 20:11:25;;;;;;;9.77;4.82;;;3.50;70.40;;;;;;4957536;28;20231;-74
2021/12/03 20:13:52;;;;;;;8.82;4.85;;;3.50;70.50;;;;;;4965646;28;20179;-73
2021/12/03 20:16:30;;;;;;;8.98;4.63;;;3.50;70.80;;;;;;4953648;28;20207;-74
2021/12/03 20:19:11;;;;;;;10.05;6.18;;;3.50;70.70;;;;;;4960412;28;20594;-75
2021/12/03 20:21:44;;;;;;;8.98;5.35;;;3.50;71.00;;;;;;5003686;28;20203;-76
2021/12/03 20:29:32;;;;;;;6.43;4.03;;;3.60;70.50;;;;;;4964388;28;20202;-76
2021/12/03 20:35:10;;;;;;;5.70;3.70;;;3.60;70.20;;;;;;5004423;28;20254;-75
2021/12/03 20:40:08;;;;;;;6.63;4.07;;;3.60;69.80;;;;;;4968847;28;20277;-74
2021/12/03 20:45:45;;;;;;;6.72;4.30;;;3.60;70.10;;;;;;4961337;28;20846;-75
2021/12/03 20:48:42;;;;;;;10.32;4.60;;;3.70;69.70;;;;;;4972519;28;20230;-74
2021/12/03 21:09:31;;;;;;;7.22;4.07;;;3.60;70.10;;;;;;4959228;28;20314;-76
2021/12/03 21:12:00;;;;;;;5.00;3.92;;;3.60;70.10;;;;;;4957042;28;20212;-76
2021/12/03 21:14:30;;;;;;;6.07;4.00;;;3.60;70.20;;;;;;4960911;28;20180;-75
2021/12/03 21:22:19;;;;;;;6.38;4.55;;;3.60;70.40;;;;;;4955996;28;20488;-76
2021/12/03 21:24:48;;;;;;;5.78;4.05;;;3.60;70.50;;;;;;4957663;28;20190;-73
2021/12/03 21:27:21;;;;;;;10.25;4.10;;;3.60;70.40;;;;;;4960580;28;20210;-75
2021/12/03 21:43:21;;;;;;;8.15;4.82;;;3.60;73.00;;;;;;4961787;28;20582;-81
2021/12/03 21:45:48;;;;;;;10.27;4.20;;;3.50;74.30;;;;;;4966319;28;20188;-81
2021/12/03 21:48:15;;;;;;;5.70;3.95;;;3.50;75.10;;;;;;4961918;28;20449;-80
2021/12/03 21:50:40;;;;;;;6.00;3.90;;;3.50;74.50;;;;;;5019434;28;20184;-79
2021/12/03 21:53:07;;;;;;;5.80;3.47;;;3.60;74.50;;;;;;4972055;28;20314;-79
2021/12/03 21:55:36;;;;;;;6.72;3.72;;;3.50;72.90;;;;;;4966621;28;20193;-78
2021/12/03 21:58:03;;;;;;;5.30;3.33;;;3.60;72.60;;;;;;5028814;28;20207;-80
2021/12/03 22:00:29;;;;;;;7.20;3.10;;;3.60;71.40;;;;;;4964071;28;20263;-80
2021/12/03 22:02:55;;;;;;;6.13;3.60;;;3.70;70.80;;;;;;4969569;28;20559;-76